createdAt,value
2022-10-23T00:01:45.089Z,102074.91
2022-10-23T00:04:20.882Z,102061.06
2022-10-23T00:06:48.945Z,102061.03
2022-10-23T00:09:18.821Z,102062.75
2022-10-23T00:11:48.047Z,102052.34
2022-10-23T00:14:16.769Z,102051.47
2022-10-23T00:16:43.707Z,102054.94
2022-10-23T00:19:11.028Z,102059.28
2022-10-23T00:21:37.925Z,102059.31
2022-10-23T00:24:04.983Z,102063.66
2022-10-23T00:26:33.894Z,102063.66
2022-10-23T00:29:00.665Z,102074.94
2022-10-23T00:31:27.271Z,102063.69
2022-10-23T00:33:55.968Z,102065.41
2022-10-23T00:36:22.618Z,102068.00
2022-10-23T00:38:51.349Z,102070.59
2022-10-23T00:41:21.593Z,102064.53
2022-10-23T00:44:03.435Z,102064.53
2022-10-23T00:46:30.764Z,102064.53
2022-10-23T00:48:58.626Z,102058.44
2022-10-23T00:51:29.541Z,102062.78
2022-10-23T00:54:12.913Z,102064.56
2022-10-23T00:56:46.384Z,102061.94
2022-10-23T00:59:13.216Z,102069.75
2022-10-23T01:01:40.285Z,102066.25
2022-10-23T01:04:08.129Z,102064.50
2022-10-23T01:06:40.548Z,102068.84
2022-10-23T01:09:22.952Z,102066.25
2022-10-23T01:12:09.674Z,102064.50
2022-10-23T01:14:47.149Z,102068.00
2022-10-23T01:17:23.168Z,102066.25
2022-10-23T01:20:11.322Z,102072.34
2022-10-23T01:23:02.728Z,102079.28
2022-10-23T01:25:55.507Z,102073.19
2022-10-23T01:28:50.633Z,102069.72
2022-10-23T01:31:35.592Z,102064.53
2022-10-23T01:34:18.996Z,102068.00
2022-10-23T01:36:48.440Z,102073.19
2022-10-23T01:39:29.744Z,102073.19
2022-10-23T01:42:03.946Z,102073.19
2022-10-23T01:44:41.054Z,102069.72
2022-10-23T01:47:10.068Z,102063.66
2022-10-23T01:49:39.608Z,102062.78
2022-10-23T01:52:08.747Z,102061.88
2022-10-23T01:54:40.346Z,102056.69
2022-10-23T01:57:11.008Z,102053.25
2022-10-23T01:59:39.824Z,102061.91
2022-10-23T02:02:07.870Z,102052.34
2022-10-23T02:04:40.136Z,102055.78
2022-10-23T02:07:06.984Z,102056.66
2022-10-23T02:09:34.529Z,102058.31
2022-10-23T02:12:06.929Z,102059.25
2022-10-23T02:14:36.459Z,102052.31
2022-10-23T02:17:17.909Z,102048.88
2022-10-23T02:19:54.091Z,102053.19
2022-10-23T02:22:31.534Z,102043.66
2022-10-23T02:25:18.352Z,102043.66
2022-10-23T02:27:52.329Z,102046.25
2022-10-23T02:30:22.998Z,102041.06
2022-10-23T02:32:51.171Z,102046.19
2022-10-23T02:35:20.017Z,102041.88
2022-10-23T02:37:58.485Z,102033.19
2022-10-23T02:40:33.165Z,102034.09
2022-10-23T02:43:09.580Z,102033.25
2022-10-23T02:45:42.560Z,102028.91
2022-10-23T02:48:20.153Z,102035.03
2022-10-23T02:50:57.999Z,102034.13
2022-10-23T02:53:47.054Z,102035.88
2022-10-23T02:56:23.218Z,102028.06
2022-10-23T02:59:14.524Z,102022.03
2022-10-23T03:01:58.371Z,102024.63
2022-10-23T03:04:28.097Z,102016.78
2022-10-23T03:06:55.696Z,102017.69
2022-10-23T03:09:22.436Z,102012.44
2022-10-23T03:11:49.010Z,102016.78
2022-10-23T03:14:15.636Z,102011.59
2022-10-23T03:16:42.369Z,102015.06
2022-10-23T03:19:09.152Z,102025.47
2022-10-23T03:21:36.014Z,102026.34
2022-10-23T03:24:06.160Z,102031.56
2022-10-23T03:26:32.724Z,102028.09
2022-10-23T03:28:59.299Z,102025.47
2022-10-23T03:31:26.011Z,102035.03
2022-10-23T03:33:52.599Z,102027.22
2022-10-23T03:36:19.247Z,102031.53
2022-10-23T03:38:45.869Z,102040.22
2022-10-23T03:41:12.481Z,102044.56
2022-10-23T03:43:39.178Z,102034.13
2022-10-23T03:46:09.406Z,102037.63
2022-10-23T03:48:39.667Z,102041.94
2022-10-23T03:51:06.592Z,102035.88
2022-10-23T03:53:33.289Z,102040.22
2022-10-23T03:56:00.181Z,102036.75
2022-10-23T03:58:26.852Z,102044.53
2022-10-23T04:00:53.444Z,102030.66
2022-10-23T04:03:20.105Z,102028.06
2022-10-23T04:05:46.829Z,102022.00
2022-10-23T04:08:20.004Z,102015.94
2022-10-23T04:10:47.186Z,102029.81
2022-10-23T04:13:19.835Z,102030.69
2022-10-23T04:15:50.740Z,102028.97
2022-10-23T04:18:17.941Z,102029.81
2022-10-23T04:20:47.008Z,102024.63
2022-10-23T04:23:13.642Z,102028.06
2022-10-23T04:25:40.293Z,102021.13
2022-10-23T04:28:06.978Z,102019.41
2022-10-23T04:30:33.610Z,102024.63
2022-10-23T04:33:00.276Z,102021.13
2022-10-23T04:35:26.936Z,102015.94
2022-10-23T04:37:53.568Z,102010.72
2022-10-23T04:40:20.143Z,102017.66
2022-10-23T04:42:46.766Z,102003.78
2022-10-23T04:45:13.499Z,102002.03
2022-10-23T04:47:40.126Z,102009.84
2022-10-23T04:50:07.128Z,102008.97
2022-10-23T04:52:33.734Z,102005.53
2022-10-23T04:55:00.434Z,101998.56
2022-10-23T04:57:27.219Z,101993.34
2022-10-23T04:59:53.791Z,101995.97
2022-10-23T05:02:20.427Z,102000.28
2022-10-23T05:04:47.036Z,102001.16
2022-10-23T05:07:13.685Z,102002.06
2022-10-23T05:09:40.393Z,102005.50
2022-10-23T05:12:07.025Z,102015.91
2022-10-23T05:14:33.623Z,102012.44
2022-10-23T05:17:12.983Z,102017.63
2022-10-23T05:19:44.930Z,102016.75
2022-10-23T05:22:13.105Z,102021.09
2022-10-23T05:24:40.299Z,102022.88
2022-10-23T05:27:06.909Z,102026.34
2022-10-23T05:29:33.552Z,102024.59
2022-10-23T05:32:03.136Z,102027.19
2022-10-23T05:34:31.782Z,102022.88
2022-10-23T05:36:58.585Z,102028.94
2022-10-23T05:39:25.212Z,102029.81
2022-10-23T05:41:52.402Z,102032.41
2022-10-23T05:44:18.997Z,102041.94
2022-10-23T05:46:45.609Z,102037.63
2022-10-23T05:49:12.259Z,102043.69
2022-10-23T05:51:40.449Z,102041.06
2022-10-23T05:54:08.291Z,102041.09
2022-10-23T05:56:41.560Z,102043.72
2022-10-23T05:59:08.744Z,102041.97
2022-10-23T06:01:35.494Z,102048.03
2022-10-23T06:04:02.296Z,102055.84
2022-10-23T06:06:29.005Z,102054.16
2022-10-23T06:08:55.656Z,102058.47
2022-10-23T06:11:22.674Z,102065.41
2022-10-23T06:13:49.268Z,102068.88
2022-10-23T06:16:18.640Z,102067.16
2022-10-23T06:18:46.245Z,102077.56
2022-10-23T06:21:13.531Z,102071.50
2022-10-23T06:23:41.762Z,102071.47
2022-10-23T06:26:10.920Z,102070.59
2022-10-23T06:28:38.884Z,102073.19
2022-10-23T06:31:06.886Z,102078.41
2022-10-23T06:33:33.892Z,102066.25
2022-10-23T06:36:00.537Z,102068.84
2022-10-23T06:38:27.134Z,102076.69
2022-10-23T06:40:55.453Z,102074.91
2022-10-23T06:43:22.420Z,102086.19
2022-10-23T06:45:49.239Z,102087.91
2022-10-23T06:48:16.411Z,102098.38
2022-10-23T06:50:43.158Z,102103.56
2022-10-23T06:53:09.769Z,102099.25
2022-10-23T06:58:03.071Z,102100.06
2022-10-23T07:00:29.755Z,102112.22
2022-10-23T07:02:56.341Z,102120.06
2022-10-23T07:05:22.960Z,102118.31
2022-10-23T07:07:49.627Z,102123.53
2022-10-23T07:10:16.319Z,102118.31
2022-10-23T07:12:44.422Z,102117.44
2022-10-23T07:15:11.294Z,102120.03
2022-10-23T07:17:37.895Z,102126.13
2022-10-23T07:20:04.840Z,102126.13
2022-10-23T07:22:31.459Z,102131.31
2022-10-23T07:24:58.137Z,102139.16
2022-10-23T07:27:24.958Z,102137.41
2022-10-23T07:29:52.443Z,102145.22
2022-10-23T07:32:19.824Z,102140.03
2022-10-23T07:34:46.415Z,102137.38
2022-10-23T07:37:12.969Z,102137.38
2022-10-23T07:39:39.617Z,102148.69
2022-10-23T07:42:06.326Z,102149.53
2022-10-23T07:44:32.874Z,102146.06
2022-10-23T07:46:59.539Z,102153.88
2022-10-23T07:49:26.165Z,102150.44
2022-10-23T07:51:53.998Z,102157.34
2022-10-23T07:54:20.710Z,102166.91
2022-10-23T07:56:47.366Z,102169.53
2022-10-23T07:59:14.692Z,102166.88
2022-10-23T08:01:45.924Z,102164.28
2022-10-23T08:04:12.628Z,102173.84
2022-10-23T08:06:39.775Z,102176.44
2022-10-23T08:09:21.448Z,102176.44
2022-10-23T08:12:16.436Z,102170.41
2022-10-23T08:14:43.077Z,102182.53
2022-10-23T08:17:10.184Z,102183.34
2022-10-23T08:19:37.054Z,102181.59
2022-10-23T08:22:04.071Z,102172.91
2022-10-23T08:24:30.886Z,102179.81
2022-10-23T08:26:58.666Z,102186.72
2022-10-23T08:29:25.723Z,102191.03
2022-10-23T08:31:55.936Z,102178.81
2022-10-23T08:34:22.656Z,102177.06
2022-10-23T08:36:49.426Z,102181.41
2022-10-23T08:39:16.299Z,102181.44
2022-10-23T08:41:47.926Z,102171.84
2022-10-23T08:44:27.405Z,102177.88
2022-10-23T08:47:06.217Z,102178.59
2022-10-23T08:49:39.123Z,102174.25
2022-10-23T08:52:17.187Z,102162.03
2022-10-23T08:54:57.545Z,102160.34
2022-10-23T08:57:33.406Z,102164.63
2022-10-23T09:00:12.436Z,102163.72
2022-10-23T09:02:43.666Z,102164.50
2022-10-23T09:06:02.225Z,102157.50
2022-10-23T09:08:37.732Z,102167.00
2022-10-23T09:11:04.605Z,102173.09
2022-10-23T09:13:37.385Z,102170.50
2022-10-23T09:16:22.966Z,102168.72
2022-10-23T09:18:50.563Z,102176.56
2022-10-23T09:21:17.610Z,102172.13
2022-10-23T09:23:44.290Z,102178.22
2022-10-23T09:26:18.186Z,102184.34
2022-10-23T09:28:55.412Z,102187.00
2022-10-23T09:31:22.232Z,102187.94
2022-10-23T09:34:00.095Z,102188.03
2022-10-23T09:36:29.343Z,102188.88
2022-10-23T09:39:01.764Z,102187.19
2022-10-23T09:41:35.241Z,102194.13
2022-10-23T09:44:07.659Z,102195.06
2022-10-23T09:46:55.481Z,102199.44
2022-10-23T09:49:26.472Z,102201.13
2022-10-23T09:52:03.770Z,102197.66
2022-10-23T09:54:34.545Z,102200.25
2022-10-23T09:57:23.964Z,102198.53
2022-10-23T09:59:53.195Z,102202.81
2022-10-23T10:02:43.207Z,102196.69
2022-10-23T10:05:29.937Z,102187.09
2022-10-23T10:08:23.073Z,102194.06
2022-10-23T10:11:01.443Z,102189.69
2022-10-23T10:13:30.977Z,102199.22
2022-10-23T10:16:27.732Z,102196.59
2022-10-23T10:19:31.413Z,102196.63
2022-10-23T10:22:16.845Z,102193.94
2022-10-23T10:24:49.458Z,102196.53
2022-10-23T10:27:24.927Z,102198.31
2022-10-23T10:30:06.200Z,102202.59
2022-10-23T10:32:38.442Z,102197.38
2022-10-23T10:35:20.788Z,102197.19
2022-10-23T10:37:57.584Z,102191.94
2022-10-23T10:40:35.497Z,102188.50
2022-10-23T10:43:11.436Z,102185.81
2022-10-23T10:45:44.717Z,102188.41
2022-10-23T10:48:23.542Z,102191.78
2022-10-23T10:51:02.468Z,102196.13
2022-10-23T10:54:10.926Z,102188.31
2022-10-23T10:56:41.853Z,102191.88
2022-10-23T10:59:36.009Z,102186.75
2022-10-23T11:02:21.292Z,102178.06
2022-10-23T11:04:57.416Z,102180.75
2022-10-23T11:07:29.538Z,102183.38
2022-10-23T11:10:00.334Z,102179.13
2022-10-23T11:12:28.340Z,102180.84
2022-10-23T11:14:55.737Z,102175.53
2022-10-23T11:17:38.152Z,102167.75
2022-10-23T11:20:35.954Z,102174.72
2022-10-23T11:23:21.342Z,102175.66
2022-10-23T11:26:18.820Z,102175.69
2022-10-23T11:29:24.723Z,102158.25
2022-10-23T11:32:00.170Z,102162.66
2022-10-23T11:34:47.047Z,102164.44
2022-10-23T11:37:21.201Z,102161.78
2022-10-23T11:40:03.405Z,102149.53
2022-10-23T11:42:33.539Z,102152.13
2022-10-23T11:45:00.431Z,102140.72
2022-10-23T11:47:38.022Z,102146.75
2022-10-23T11:50:08.842Z,102141.50
2022-10-23T11:52:45.501Z,102142.31
2022-10-23T11:55:19.920Z,102128.41
2022-10-23T11:58:04.943Z,102135.22
2022-10-23T12:00:38.810Z,102136.09
2022-10-23T12:03:06.383Z,102136.09
2022-10-23T12:05:41.653Z,102133.44
2022-10-23T12:08:26.004Z,102127.41
2022-10-23T12:10:53.265Z,102119.66
2022-10-23T12:13:43.814Z,102119.72
2022-10-23T12:16:11.119Z,102122.34
2022-10-23T12:18:54.231Z,102119.69
2022-10-23T12:21:28.194Z,102118.78
2022-10-23T12:24:06.661Z,102117.91
2022-10-23T12:26:50.713Z,102110.06
2022-10-23T12:29:36.170Z,102100.50
2022-10-23T12:32:36.071Z,102097.94
2022-10-23T12:35:08.915Z,102104.81
2022-10-23T12:38:15.130Z,102102.13
2022-10-23T12:40:51.040Z,102088.06
2022-10-23T12:43:26.253Z,102096.66
2022-10-23T12:45:58.025Z,102094.00
2022-10-23T12:48:27.810Z,102098.38
2022-10-23T12:50:56.613Z,102094.06
2022-10-23T12:53:24.371Z,102090.53
2022-10-23T12:56:05.308Z,102088.78
2022-10-23T12:58:34.684Z,102085.34
2022-10-23T13:01:05.012Z,102078.31
2022-10-23T13:03:33.250Z,102098.38
2022-10-23T13:06:04.753Z,102091.47
2022-10-23T13:08:40.900Z,102079.28
2022-10-23T13:11:14.097Z,102067.22
2022-10-23T13:13:42.211Z,102073.28
2022-10-23T13:16:17.633Z,102071.47
2022-10-23T13:20:19.338Z,102067.88
2022-10-23T13:22:59.449Z,102067.03
2022-10-23T13:25:27.555Z,102062.63
2022-10-23T13:28:15.053Z,102053.03
2022-10-23T13:30:49.020Z,102057.38
2022-10-23T13:33:23.872Z,102056.53
2022-10-23T13:35:58.276Z,102054.69
2022-10-23T13:38:30.444Z,102053.81
2022-10-23T13:41:00.107Z,102056.56
2022-10-23T13:43:29.605Z,102056.69
2022-10-23T13:45:58.994Z,102053.25
2022-10-23T13:48:28.632Z,102052.38
2022-10-23T13:51:06.364Z,102046.34
2022-10-23T13:53:33.244Z,102048.97
2022-10-23T13:56:00.208Z,102044.59
2022-10-23T13:58:27.190Z,102043.56
2022-10-23T14:00:54.311Z,102046.19
2022-10-23T14:03:24.390Z,102045.34
2022-10-23T14:05:52.249Z,102046.25
2022-10-23T14:08:19.482Z,102040.13
2022-10-23T14:10:46.557Z,102033.22
2022-10-23T14:13:14.575Z,102041.06
2022-10-23T14:15:41.550Z,102044.47
2022-10-23T14:18:08.645Z,102038.41
2022-10-23T14:20:42.018Z,102029.81
2022-10-23T14:23:08.891Z,102034.25
2022-10-23T14:25:38.572Z,102035.13
2022-10-23T14:28:05.615Z,102041.25
2022-10-23T14:30:32.649Z,102045.72
2022-10-23T14:33:01.997Z,102039.53
2022-10-23T14:35:28.974Z,102038.81
2022-10-23T14:37:55.983Z,102044.03
2022-10-23T14:40:22.958Z,102044.97
2022-10-23T14:42:50.720Z,102046.72
2022-10-23T14:45:24.751Z,102046.75
2022-10-23T14:47:51.552Z,102050.31
2022-10-23T14:50:18.321Z,102044.19
2022-10-23T14:52:45.150Z,102045.13
2022-10-23T14:55:11.927Z,102052.16
2022-10-23T14:57:38.828Z,102038.19
2022-10-23T15:00:06.830Z,102046.91
2022-10-23T15:02:34.004Z,102046.16
2022-10-23T15:05:00.862Z,102047.00
2022-10-23T15:07:27.644Z,102053.06
2022-10-23T15:09:55.600Z,102054.88
2022-10-23T15:12:25.020Z,102050.56
2022-10-23T15:14:51.770Z,102043.63
2022-10-23T15:17:18.588Z,102041.91
2022-10-23T15:19:46.223Z,102037.53
2022-10-23T15:22:13.811Z,102041.09
2022-10-23T15:24:41.744Z,102036.78
2022-10-23T15:29:37.935Z,102025.47
2022-10-23T15:32:05.998Z,102026.41
2022-10-23T15:34:36.363Z,102028.19
2022-10-23T15:37:03.901Z,102032.53
2022-10-23T15:39:33.951Z,102026.44
2022-10-23T15:42:00.764Z,102023.00
2022-10-23T15:44:29.844Z,102026.50
2022-10-23T15:46:57.445Z,102024.81
2022-10-23T15:49:25.099Z,102019.59
2022-10-23T15:51:53.168Z,102022.19
2022-10-23T15:54:20.930Z,102038.75
2022-10-23T15:56:53.872Z,102041.38
2022-10-23T15:59:24.672Z,102044.88
2022-10-23T16:01:52.102Z,102036.19
2022-10-23T16:04:19.290Z,102031.91
2022-10-23T16:06:46.251Z,102037.09
2022-10-23T16:09:13.280Z,102041.44
2022-10-23T16:11:41.831Z,102044.13
2022-10-23T16:14:12.883Z,102050.19
2022-10-23T16:16:39.733Z,102039.75
2022-10-23T16:19:06.562Z,102045.88
2022-10-23T16:21:36.267Z,102045.91
2022-10-23T16:24:06.397Z,102052.81
2022-10-23T16:26:33.852Z,102050.25
2022-10-23T16:29:03.867Z,102047.63
2022-10-23T16:31:31.199Z,102043.28
2022-10-23T16:34:00.487Z,102047.66
2022-10-23T16:36:28.223Z,102047.66
2022-10-23T16:39:17.643Z,102052.03
2022-10-23T16:42:05.254Z,102059.00
2022-10-23T16:45:11.037Z,102062.50
2022-10-23T16:47:38.128Z,102059.91
2022-10-23T16:50:05.286Z,102055.56
2022-10-23T16:52:33.395Z,102053.81
2022-10-23T16:55:00.304Z,102053.84
2022-10-23T16:57:28.052Z,102053.00
2022-10-23T16:59:55.463Z,102063.44
2022-10-23T17:02:22.538Z,102056.47
2022-10-23T17:04:49.887Z,102061.72
2022-10-23T17:07:16.814Z,102060.03
2022-10-23T17:09:47.317Z,102061.78
2022-10-23T17:12:15.970Z,102067.06
2022-10-23T17:14:43.127Z,102071.47
2022-10-23T17:17:10.159Z,102071.47
2022-10-23T17:19:45.120Z,102083.59
2022-10-23T17:22:14.028Z,102080.16
2022-10-23T17:24:41.814Z,102084.50
2022-10-23T17:27:09.202Z,102082.75
2022-10-23T17:29:36.480Z,102083.59
2022-10-23T17:32:04.309Z,102090.56
2022-10-23T17:34:31.224Z,102093.16
2022-10-23T17:36:58.179Z,102095.78
2022-10-23T17:39:28.047Z,102087.09
2022-10-23T17:41:56.041Z,102104.47
2022-10-23T17:44:23.307Z,102103.59
2022-10-23T17:46:54.034Z,102102.69
2022-10-23T17:49:22.817Z,102106.19
2022-10-23T17:51:57.295Z,102096.66
2022-10-23T17:54:26.717Z,102107.97
2022-10-23T17:56:54.137Z,102109.66
2022-10-23T17:59:22.129Z,102108.81
2022-10-23T18:01:50.245Z,102125.28
2022-10-23T18:04:20.815Z,102133.13
2022-10-23T18:06:51.100Z,102117.47
2022-10-23T18:09:19.000Z,102116.63
2022-10-23T18:11:48.179Z,102119.22
2022-10-23T18:14:17.191Z,102114.03
2022-10-23T18:16:45.990Z,102123.53
2022-10-23T18:19:14.611Z,102121.81
2022-10-23T18:21:41.758Z,102129.66
2022-10-23T18:24:09.245Z,102127.06
2022-10-23T18:26:39.478Z,102127.94
2022-10-23T18:29:08.664Z,102124.44
2022-10-23T18:31:37.415Z,102124.44
2022-10-23T18:34:07.788Z,102119.22
2022-10-23T18:36:40.908Z,102129.66
2022-10-23T18:39:12.801Z,102127.06
2022-10-23T18:41:42.161Z,102127.88
2022-10-23T18:44:09.873Z,102118.34
2022-10-23T18:46:37.621Z,102108.78
2022-10-23T18:49:04.921Z,102111.38
2022-10-23T18:51:34.344Z,102113.97
2022-10-23T18:54:04.546Z,102102.69
2022-10-23T18:56:32.012Z,102104.44
2022-10-23T18:59:02.006Z,102099.22
2022-10-23T19:01:30.338Z,102104.41
2022-10-23T19:03:59.802Z,102106.13
2022-10-23T19:06:30.530Z,102097.44
2022-10-23T19:08:58.440Z,102090.50
2022-10-23T19:11:29.140Z,102096.56
2022-10-23T19:13:57.545Z,102093.94
2022-10-23T19:16:29.980Z,102098.28
2022-10-23T19:19:06.116Z,102098.28
2022-10-23T19:21:38.678Z,102104.34
2022-10-23T19:24:11.383Z,102104.34
2022-10-23T19:26:41.412Z,102088.72
2022-10-23T19:29:11.953Z,102101.75
2022-10-23T19:31:43.364Z,102112.19
2022-10-23T19:34:11.639Z,102108.75
2022-10-23T19:36:38.613Z,102099.19
2022-10-23T19:39:05.694Z,102113.06
2022-10-23T19:41:32.730Z,102105.25
2022-10-23T19:43:59.970Z,102122.63
2022-10-23T19:46:27.314Z,102117.41
2022-10-23T19:48:54.603Z,102104.38
2022-10-23T19:51:22.052Z,102104.41
2022-10-23T19:53:49.456Z,102114.84
2022-10-23T19:56:16.703Z,102106.13
2022-10-23T19:58:43.718Z,102111.34
2022-10-23T20:01:14.748Z,102107.00
2022-10-23T20:03:45.628Z,102108.72
2022-10-23T20:06:14.991Z,102107.00
2022-10-23T20:08:42.651Z,102105.28
2022-10-23T20:11:17.904Z,102106.13
2022-10-23T20:13:48.721Z,102112.25
2022-10-23T20:16:27.761Z,102117.44
2022-10-23T20:18:55.621Z,102123.50
2022-10-23T20:21:23.604Z,102126.13
2022-10-23T20:23:50.782Z,102130.50
2022-10-23T20:26:21.494Z,102127.88
2022-10-23T20:28:51.887Z,102126.97
2022-10-23T20:31:21.184Z,102126.13
2022-10-23T20:33:48.146Z,102114.84
2022-10-23T20:36:45.428Z,102109.63
2022-10-23T20:39:17.137Z,102117.44
2022-10-23T20:41:45.244Z,102118.31
2022-10-23T20:46:42.637Z,102121.78
2022-10-23T20:49:10.091Z,102128.72
2022-10-23T20:51:37.808Z,102123.50
2022-10-23T20:54:07.101Z,102107.84
2022-10-23T20:56:39.018Z,102111.34
2022-10-23T20:59:17.562Z,102110.47
2022-10-23T21:01:49.662Z,102106.13
2022-10-23T21:04:19.427Z,102097.41
2022-10-23T21:07:11.394Z,102104.38
2022-10-23T21:09:39.791Z,102103.53
2022-10-23T21:12:07.375Z,102097.41
2022-10-23T21:14:34.965Z,102108.69
2022-10-23T21:17:02.136Z,102099.13
2022-10-23T21:19:29.106Z,102099.97
2022-10-23T21:21:55.967Z,102097.38
2022-10-23T21:24:24.211Z,102100.00
2022-10-23T21:26:51.205Z,102101.75
2022-10-23T21:29:19.316Z,102106.09
2022-10-23T21:31:58.251Z,102103.44
2022-10-23T21:34:26.219Z,102109.56
2022-10-23T21:37:11.963Z,102111.28
2022-10-23T21:39:40.410Z,102115.63
2022-10-23T21:42:07.259Z,102116.50
2022-10-23T21:44:34.178Z,102107.78
2022-10-23T21:47:01.067Z,102102.59
2022-10-23T21:49:28.430Z,102106.09
2022-10-23T21:51:55.440Z,102112.19
2022-10-23T21:54:22.779Z,102113.91
2022-10-23T21:56:54.029Z,102102.56
2022-10-23T21:59:24.513Z,102100.00
2022-10-23T22:01:52.498Z,102097.38
2022-10-23T22:04:22.139Z,102088.72
2022-10-23T22:06:49.965Z,102097.38
2022-10-23T22:09:20.253Z,102095.66
2022-10-23T22:11:52.303Z,102099.09
2022-10-23T22:14:19.231Z,102099.16
2022-10-23T22:16:46.560Z,102094.78
2022-10-23T22:19:15.918Z,102102.59
2022-10-23T22:21:45.285Z,102107.78
2022-10-23T22:24:12.773Z,102105.22
2022-10-23T22:26:45.918Z,102098.25
2022-10-23T22:29:20.180Z,102090.44
2022-10-23T22:31:49.674Z,102089.56
2022-10-23T22:34:27.154Z,102096.53
2022-10-23T22:37:00.917Z,102096.53
2022-10-23T22:39:27.607Z,102100.88
2022-10-23T22:41:54.501Z,102099.13
2022-10-23T22:44:21.228Z,102096.53
2022-10-23T22:46:48.116Z,102082.63
2022-10-23T22:49:14.934Z,102080.03
2022-10-23T22:51:41.895Z,102071.31
2022-10-23T22:54:08.766Z,102074.78
2022-10-23T22:56:35.468Z,102071.31
2022-10-23T22:59:02.644Z,102069.56
2022-10-23T23:01:43.216Z,102070.47
2022-10-23T23:04:36.858Z,102063.50
2022-10-23T23:06:59.924Z,102057.41
2022-10-23T23:09:26.867Z,102057.44
2022-10-23T23:11:56.327Z,102052.22
2022-10-23T23:14:24.399Z,102058.28
2022-10-23T23:16:53.153Z,102062.63
2022-10-23T23:19:20.133Z,102069.56
2022-10-23T23:21:47.229Z,102069.56
2022-10-23T23:24:17.587Z,102065.22
2022-10-23T23:26:44.406Z,102066.97
2022-10-23T23:29:11.565Z,102073.94
2022-10-23T23:31:38.602Z,102061.78
2022-10-23T23:34:05.896Z,102066.94
2022-10-23T23:36:33.930Z,102058.25
2022-10-23T23:39:00.890Z,102055.66
2022-10-23T23:41:29.164Z,102053.03
2022-10-23T23:43:57.642Z,102057.41
2022-10-23T23:46:25.253Z,102046.97
2022-10-23T23:48:52.411Z,102046.13
2022-10-23T23:51:24.654Z,102049.56
2022-10-23T23:53:52.227Z,102048.72
2022-10-23T23:56:19.596Z,102046.09
2022-10-23T23:58:46.421Z,102045.25
